Station Historical Data
V 3.3 - 4-Mar-2016
Daily Summary for February 14, 2018 Units:  English    Metric   Both
« Previous Day
Next Day »
Daily Weekly Monthly Yearly Custom
  High: Low: Average:
Temperature: 86.7 °F 69.4 °F 74.8 °F
Dew Point: 73.4 °F 67.5 °F 70.2 °F
Humidity: 98% 60% 86%
Wind Speed: 4.5 mph 0 mph 1.1 mph
Wind Gust: 8.3 mph - -
Wind- - WSW
Pressure: 29.9 in 29.8 in -
Precipitation: 0.01 in    
Historical Graphs
 
 
Tabular Data for February 14, 2018
Time Temperature Dew Point Pressure Wind Wind Speed Wind Gust Humidity Rain Rate (Hrly) Rain Day
00:02 71.4 °F 70.5 °F 29.9 in Calm   2.2 mph 97% 0 in 0.0mm
00:08 71.4 °F 70.5 °F 29.9 in Calm   2.2 mph 97% 0 in 0.0mm
00:14 71.1 °F 70.2 °F 29.9 in Calm   1.6 mph 97% 0 in 0.0mm
00:20 71.1 °F 70.2 °F 29.9 in Calm   1.6 mph 97% 0 in 0.0mm
00:26 71.1 °F 70.2 °F 29.9 in Calm   2.2 mph 97% 0 in 0.0mm
00:32 71.1 °F 70.2 °F 29.9 in Calm   2.2 mph 97% 0 in 0.0mm
00:38 71.1 °F 70.2 °F 29.9 in Calm   1.6 mph 97% 0 in 0.0mm
00:44 71.1 °F 70.2 °F 29.9 in Calm   1.6 mph 97% 0 in 0.0mm
00:50 71.1 °F 70.2 °F 29.9 in Calm   0.7 mph 97% 0 in 0.0mm
00:56 71.1 °F 70.2 °F 29.9 in Calm   1.6 mph 97% 0 in 0.0mm
01:02 71.1 °F 70.2 °F 29.9 in Calm   1.6 mph 97% 0 in 0.0mm
01:08 71.1 °F 70.2 °F 29.9 in Calm   1.6 mph 97% 0 in 0.0mm
01:14 71.1 °F 70.2 °F 29.9 in Calm   0.7 mph 97% 0 in 0.0mm
01:20 70.9 °F 70 °F 29.9 in Calm   0.7 mph 97% 0 in 0.0mm
01:26 70.7 °F 69.8 °F 29.9 in Calm   0.7 mph 97% 0 in 0.0mm
01:32 70.7 °F 69.8 °F 29.9 in Calm   0.7 mph 97% 0 in 0.0mm
01:38 70.7 °F 69.8 °F 29.9 in Calm     97% 0 in 0.0mm
01:44 70.7 °F 69.8 °F 29.9 in Calm     97% 0 in 0.0mm
01:50 70.7 °F 69.8 °F 29.9 in Calm     97% 0 in 0.0mm
01:56 70.7 °F 69.8 °F 29.9 in Calm     97% 0 in 0.0mm
02:02 70.7 °F 69.8 °F 29.9 in Calm     97% 0 in 0.0mm
02:08 70.5 °F 69.6 °F 29.9 in Calm     97% 0 in 0.0mm
02:14 70.5 °F 69.6 °F 29.9 in Calm     97% 0 in 0.0mm
02:20 70.2 °F 69.3 °F 29.9 in Calm     97% 0 in 0.0mm
02:26 69.8 °F 68.9 °F 29.9 in Calm     97% 0 in 0.0mm
02:32 69.6 °F 69.1 °F 29.9 in Calm     98% 0 in 0.0mm
02:38 69.6 °F 69.1 °F 29.9 in Calm     98% 0 in 0.0mm
02:44 69.6 °F 69.1 °F 29.9 in Calm     98% 0 in 0.0mm
02:50 69.6 °F 69.1 °F 29.9 in Calm     98% 0 in 0.0mm
02:56 69.4 °F 68.9 °F 29.9 in Calm     98% 0 in 0.0mm
03:02 69.6 °F 69.1 °F 29.9 in Calm     98% 0 in 0.0mm
03:08 69.4 °F 68.9 °F 29.9 in Calm     98% 0 in 0.0mm
03:14 69.6 °F 69.1 °F 29.9 in Calm   1.6 mph 98% 0 in 0.0mm
03:20 69.8 °F 68.9 °F 29.9 in Calm   1.6 mph 97% 0 in 0.0mm
03:26 70 °F 69.1 °F 29.9 in Calm   1.6 mph 97% 0 in 0.0mm
03:32 70.2 °F 69.3 °F 29.9 in Calm   1.6 mph 97% 0 in 0.0mm
03:38 70.2 °F 69.3 °F 29.9 in Calm   2.2 mph 97% 0 in 0.0mm
03:44 70.2 °F 69.3 °F 29.9 in Calm   2.2 mph 97% 0 in 0.0mm
03:50 70 °F 69.1 °F 29.9 in Calm   1.6 mph 97% 0 in 0.0mm
03:56 70 °F 69.1 °F 29.9 in Calm   1.6 mph 97% 0 in 0.0mm
04:02 70.2 °F 69.6 °F 29.9 in NNW 0.7 mph 1.6 mph 98% 0 in 0.0mm
04:08 70.2 °F 69.6 °F 29.9 in North 0.7 mph 1.6 mph 98% 0 in 0.0mm
04:14 70.3 °F 69.8 °F 29.9 in North 0.7 mph 2.2 mph 98% 0 in 0.0mm
04:20 70.3 °F 69.8 °F 29.9 in NNE 0.7 mph 2.2 mph 98% 0 in 0.0mm
04:26 70.3 °F 69.8 °F 29.9 in NNE 0.7 mph 2.2 mph 98% 0 in 0.0mm
04:32 70.3 °F 69.8 °F 29.9 in North 1.6 mph 3.1 mph 98% 0 in 0.0mm
04:38 70.5 °F 70 °F 29.9 in North 0.7 mph 3.1 mph 98% 0 in 0.0mm
04:44 70.3 °F 69.8 °F 29.9 in Calm   2.2 mph 98% 0 in 0.0mm
04:50 70.3 °F 69.8 °F 29.9 in North 0.7 mph 2.2 mph 98% 0 in 0.0mm
04:56 70.3 °F 69.8 °F 29.9 in Calm   2.2 mph 98% 0 in 0.0mm
05:02 70.3 °F 69.8 °F 29.9 in Calm     98% 0 in 0.0mm
05:08 70.3 °F 69.8 °F 29.9 in Calm   1.6 mph 98% 0 in 0.0mm
05:14 70.3 °F 69.8 °F 29.9 in NNE 0.7 mph 2.2 mph 98% 0 in 0.0mm
05:20 70.3 °F 69.8 °F 29.9 in Calm   2.2 mph 98% 0 in 0.0mm
05:26 70.3 °F 69.8 °F 29.9 in NNE 0.7 mph 3.1 mph 98% 0 in 0.0mm
05:32 70.3 °F 69.8 °F 29.9 in North 1.6 mph 3.1 mph 98% 0 in 0.0mm
05:38 70.3 °F 69.8 °F 29.9 in North 2.2 mph 3.1 mph 98% 0 in 0.0mm
05:44 70.3 °F 69.8 °F 29.9 in North 0.7 mph 3.1 mph 98% 0 in 0.0mm
05:50 70.3 °F 69.8 °F 29.9 in Calm   2.2 mph 98% 0 in 0.0mm
05:56 70.3 °F 69.8 °F 29.9 in NE 0.7 mph 4.5 mph 98% 0 in 0.0mm
06:02 70.3 °F 69.8 °F 29.9 in Calm   4.5 mph 98% 0 in 0.0mm
06:08 70.2 °F 69.6 °F 29.9 in North 0.7 mph 3.1 mph 98% 0 in 0.0mm
06:14 70.2 °F 69.6 °F 29.9 in Calm   3.1 mph 98% 0 in 0.0mm
06:20 70.2 °F 69.6 °F 29.9 in Calm   1.6 mph 98% 0 in 0.0mm
06:26 70.3 °F 69.4 °F 29.9 in Calm   2.2 mph 97% 0 in 0.0mm
06:32 70.3 °F 69.4 °F 29.9 in Calm   2.2 mph 97% 0 in 0.0mm
06:38 70.3 °F 69.4 °F 29.9 in Calm   2.2 mph 97% 0 in 0.0mm
06:44 70.3 °F 69.4 °F 29.9 in Calm   3.1 mph 97% 0 in 0.0mm
06:50 70.3 °F 69.4 °F 29.9 in Calm   3.1 mph 97% 0 in 0.0mm
06:56 70.3 °F 69.4 °F 29.9 in NW 0.7 mph 1.6 mph 97% 0 in 0.0mm
07:02 70.3 °F 69.4 °F 29.9 in NNW 0.7 mph 2.2 mph 97% 0 in 0.0mm
07:08 70.3 °F 69.4 °F 29.9 in Calm   2.2 mph 97% 0 in 0.0mm
07:14 70.5 °F 69.6 °F 29.9 in North 0.7 mph 2.2 mph 97% 0 in 0.0mm
07:20 70.5 °F 69.6 °F 29.9 in Calm   2.2 mph 97% 0 in 0.0mm
07:26 70.5 °F 69.6 °F 29.9 in Calm   3.1 mph 97% 0 in 0.0mm
07:32 70.5 °F 69.6 °F 29.9 in North 0.7 mph 3.1 mph 97% 0 in 0.0mm
07:38 70.7 °F 69.8 °F 29.9 in North 0.7 mph 3.8 mph 97% 0 in 0.0mm
07:44 70.7 °F 69.8 °F 29.9 in Calm   3.8 mph 97% 0 in 0.0mm
07:50 70.9 °F 70 °F 29.9 in Calm   2.2 mph 97% 0 in 0.0mm
07:56 70.9 °F 70 °F 29.9 in NNW 0.7 mph 2.2 mph 97% 0 in 0.0mm
08:02 71.4 °F 70.5 °F 29.9 in North 1.6 mph 3.8 mph 97% 0 in 0.0mm
08:08 72 °F 70.9 °F 29.9 in North 0.7 mph 3.8 mph 96% 0 in 0.0mm
08:14 72 °F 70.9 °F 29.9 in North 1.6 mph 4.5 mph 96% 0 in 0.0mm
08:20 72.3 °F 71.2 °F 29.9 in Calm   4.5 mph 96% 0 in 0.0mm
08:26 72.9 °F 71.8 °F 29.9 in NNW 1.6 mph 3.8 mph 96% 0 in 0.0mm
08:32 73.4 °F 72.1 °F 29.9 in NNE 0.7 mph 3.8 mph 96% 0 in 0.0mm
08:38 73.4 °F 72 °F 29.9 in North 0.7 mph 4.5 mph 95% 0 in 0.0mm
08:44 73.8 °F 72 °F 29.9 in North 2.2 mph 5.4 mph 94% 0 in 0.0mm
08:50 73.4 °F 71.6 °F 29.9 in NW 0.7 mph 5.4 mph 94% 0 in 0.0mm
08:56 73.6 °F 71.4 °F 29.9 in NNW 0.7 mph 3.8 mph 93% 0 in 0.0mm
09:02 73.6 °F 71.4 °F 29.9 in North 1.6 mph 3.1 mph 93% 0 in 0.0mm
09:08 74.1 °F 71.8 °F 29.9 in NNW 0.7 mph 3.1 mph 92% 0 in 0.0mm
09:14 75.4 °F 72.7 °F 29.9 in NW 1.6 mph 3.8 mph 91% 0 in 0.0mm
09:20 75.9 °F 72.1 °F 29.9 in NW 0.7 mph 6 mph 88% 0 in 0.0mm
09:26 75.7 °F 71.6 °F 29.9 in Calm   6 mph 87% 0 in 0.0mm
09:32 76.5 °F 72 °F 29.9 in NW 0.7 mph 3.1 mph 86% 0 in 0.0mm
09:38 76.8 °F 71.8 °F 29.9 in NW 2.2 mph 4.5 mph 84% 0 in 0.0mm
09:44 76.6 °F 71.1 °F 29.9 in West 1.6 mph 5.4 mph 83% 0 in 0.0mm
09:50 76.8 °F 71.2 °F 29.9 in WNW 1.6 mph 5.4 mph 83% 0 in 0.0mm
09:56 77 °F 70.9 °F 29.9 in WNW 1.6 mph 3.8 mph 81% 0 in 0.0mm
10:02 77 °F 70.9 °F 29.9 in WNW 1.6 mph 4.5 mph 81% 0 in 0.0mm
10:08 77.4 °F 71.1 °F 29.9 in NW 0.7 mph 4.5 mph 81% 0 in 0.0mm
10:14 77.9 °F 71.2 °F 29.9 in NW 0.7 mph 3.1 mph 80% 0 in 0.0mm
10:20 77.5 °F 70.9 °F 29.9 in WNW 1.6 mph 3.8 mph 80% 0 in 0.0mm
10:26 77.5 °F 70.9 °F 29.9 in WNW 0.7 mph 4.5 mph 80% 0 in 0.0mm
10:32 77.9 °F 71.2 °F 29.9 in NNW 1.6 mph 4.5 mph 80% 0 in 0.0mm
10:38 77.9 °F 70.9 °F 29.9 in North 3.1 mph 5.4 mph 79% 0 in 0.0mm
10:44 77.4 °F 70.3 °F 29.9 in NW 0.7 mph 5.4 mph 79% 0 in 0.0mm
10:50 77.9 °F 71.2 °F 29.9 in NW 2.2 mph 4.5 mph 80% 0 in 0.0mm
10:56 77.5 °F 70.9 °F 29.9 in WNW 1.6 mph 4.5 mph 80% 0 in 0.0mm
11:02 77.7 °F 71.1 °F 29.9 in NNW 1.6 mph 5.4 mph 80% 0 in 0.0mm
11:08 78.6 °F 71.6 °F 29.9 in West 2.2 mph 3.8 mph 79% 0 in 0.0mm
11:14 78.8 °F 71.1 °F 29.9 in NNW 1.6 mph 3.8 mph 77% 0 in 0.0mm
11:20 78.3 °F 70.5 °F 29.9 in NNW 0.7 mph 3.8 mph 77% 0 in 0.0mm
11:26 77.7 °F 70.7 °F 29.9 in NNW 2.2 mph 3.8 mph 79% 0 in 0.0mm
11:32 77.7 °F 71.1 °F 29.9 in North 1.6 mph 4.5 mph 80% 0 in 0.0mm
11:38 77.4 °F 70.9 °F 29.9 in NNW 3.1 mph 4.5 mph 80% 0 in 0.0mm
11:44 78.1 °F 71.8 °F 29.9 in North 3.1 mph 3.8 mph 81% 0 in 0.0mm
11:50 78.3 °F 71.2 °F 29.9 in North 2.2 mph 6 mph 79% 0 in 0.0mm
11:56 77.4 °F 70.9 °F 29.9 in NW 0.7 mph 6 mph 80% 0 in 0.0mm
12:02 79.3 °F 72.3 °F 29.9 in NW 1.6 mph 3.8 mph 79% 0 in 0.0mm
12:08 79.3 °F 70.9 °F 29.9 in NNE 2.2 mph 4.5 mph 75% 0 in 0.0mm
12:14 80.1 °F 72.3 °F 29.9 in NNE 1.6 mph 4.5 mph 77% 0 in 0.0mm
12:20 82.2 °F 72.9 °F 29.9 in NNE 2.2 mph 4.5 mph 73% 0 in 0.0mm
12:26 81.7 °F 71.1 °F 29.9 in WNW 0.7 mph 6.9 mph 70% 0 in 0.0mm
12:32 83.3 °F 73 °F 29.9 in NW 1.6 mph 5.4 mph 71% 0 in 0.0mm
12:38 82 °F 70.5 °F 29.9 in NW 3.1 mph 7.6 mph 68% 0 in 0.0mm
12:44 82 °F 71.2 °F 29.9 in NW 2.2 mph 7.6 mph 70% 0 in 0.0mm
12:50 83.1 °F 71.4 °F 29.9 in NNW 2.2 mph 6 mph 68% 0 in 0.0mm
12:56 83.8 °F 71.8 °F 29.9 in NNE 2.2 mph 6.9 mph 67% 0 in 0.0mm
13:02 81.7 °F 70.2 °F 29.9 in NE 1.6 mph 4.5 mph 68% 0 in 0.0mm
13:08 78.4 °F 69.4 °F 29.9 in NNW 3.1 mph 4.5 mph 74% 0 in 0.0mm
13:14 77 °F 70.3 °F 29.9 in North 0.7 mph 4.5 mph 80% 0 in 0.0mm
13:20 78.6 °F 73 °F 29.9 in NE 1.6 mph 4.5 mph 83% 0 in 0.0mm
13:26 80.6 °F 73.2 °F 29.9 in NNE 1.6 mph 4.5 mph 78% 0 in 0.0mm
13:32 81.3 °F 71.4 °F 29.9 in NNE 2.2 mph 4.5 mph 72% 0 in 0.0mm
13:38 81.5 °F 71.2 °F 29.9 in NE 1.6 mph 5.4 mph 71% 0.01 in 0.3mm
13:44 79.3 °F 70 °F 29.9 in NE 0.7 mph 5.4 mph 73% 0.01 in 0.3mm
13:50 78.1 °F 71.1 °F 29.9 in NNE 1.6 mph 4.5 mph 79% 0.01 in 0.3mm
13:56 80.4 °F 73.4 °F 29.9 in North 3.1 mph 5.4 mph 79% 0.01 in 0.3mm
14:02 81.9 °F 72.3 °F 29.9 in NNE 1.6 mph 8.3 mph 73% 0.01 in 0.3mm
14:08 82.4 °F 71.8 °F 29.9 in NNE 0.7 mph 8.3 mph 70% 0.01 in 0.3mm
14:14 80.4 °F 70.2 °F 29.9 in North 3.1 mph 6.9 mph 71% 0.01 in 0.3mm
14:20 80.1 °F 70.3 °F 29.9 in NNE 2.2 mph 6.9 mph 72% 0.01 in 0.3mm
14:26 79.5 °F 69.6 °F 29.9 in North 2.2 mph 6 mph 72% 0.01 in 0.3mm
14:32 79.3 °F 69.6 °F 29.9 in NW 3.1 mph 6 mph 72% 0 in 0.3mm
14:38 80.2 °F 70 °F 29.9 in North 1.6 mph 4.5 mph 71% 0 in 0.3mm
14:44 82 °F 71.2 °F 29.9 in NW 1.6 mph 4.5 mph 70% 0 in 0.3mm
14:50 82.8 °F 70.7 °F 29.9 in WNW 0.7 mph 5.4 mph 67% 0 in 0.3mm
14:56 82.4 °F 70.9 °F 29.9 in NNW 1.6 mph 5.4 mph 68% 0 in 0.3mm
15:02 82.9 °F 72.1 °F 29.9 in NNW 2.2 mph 5.4 mph 70% 0 in 0.3mm
15:08 82.9 °F 71.8 °F 29.9 in NNW 1.6 mph 5.4 mph 69% 0 in 0.3mm
15:14 84.4 °F 71.4 °F 29.9 in North 2.2 mph 6 mph 65% 0 in 0.3mm
15:20 83.3 °F 71.2 °F 29.9 in NNW 1.6 mph 6 mph 67% 0 in 0.3mm
15:26 84.7 °F 72.1 °F 29.9 in North 2.2 mph 5.4 mph 66% 0 in 0.3mm
15:32 84.4 °F 71.4 °F 29.9 in NNE 1.6 mph 6.9 mph 65% 0 in 0.3mm
15:38 85.6 °F 72.7 °F 29.9 in SSW 1.6 mph 5.4 mph 65% 0 in 0.3mm
15:44 86.4 °F 72 °F 29.9 in NE 2.2 mph 5.4 mph 62% 0 in 0.3mm
15:50 86.7 °F 71.2 °F 29.9 in NE 3.1 mph 5.4 mph 60% 0 in 0.3mm
15:56 85.5 °F 71.1 °F 29.8 in North 2.2 mph 5.4 mph 62% 0 in 0.3mm
16:02 85.3 °F 70.9 °F 29.9 in NNW 2.2 mph 5.4 mph 62% 0 in 0.3mm
16:08 85.6 °F 70.7 °F 29.9 in SW 1.6 mph 5.4 mph 61% 0 in 0.3mm
16:14 85.8 °F 71.8 °F 29.8 in West 3.1 mph 5.4 mph 63% 0 in 0.3mm
16:20 86 °F 71.1 °F 29.8 in NW 1.6 mph 5.4 mph 61% 0 in 0.3mm
16:26 83.8 °F 70 °F 29.8 in NNE 0.7 mph 4.5 mph 63% 0 in 0.3mm
16:32 82.4 °F 69.1 °F 29.8 in NE 1.6 mph 5.4 mph 64% 0 in 0.3mm
16:38 80.6 °F 69.1 °F 29.8 in WNW 1.6 mph 5.4 mph 68% 0 in 0.3mm
16:44 79.7 °F 70 °F 29.8 in NW 1.6 mph 4.5 mph 72% 0 in 0.3mm
16:50 79.7 °F 70 °F 29.8 in NNW 2.2 mph 4.5 mph 72% 0 in 0.3mm
16:56 79.5 °F 70.2 °F 29.8 in WNW 1.6 mph 4.5 mph 73% 0 in 0.3mm
17:02 79.5 °F 70.2 °F 29.8 in NNW 1.6 mph 3.8 mph 73% 0 in 0.3mm
17:08 79.7 °F 70.7 °F 29.8 in NNW 1.6 mph 4.5 mph 74% 0 in 0.3mm
17:14 79 °F 70 °F 29.8 in NNE 1.6 mph 4.5 mph 74% 0 in 0.3mm
17:20 79 °F 70.3 °F 29.8 in NW 2.2 mph 6 mph 75% 0 in 0.3mm
17:26 79 °F 70 °F 29.8 in NW 0.7 mph 4.5 mph 74% 0 in 0.3mm
17:32 78.8 °F 70.3 °F 29.8 in North 2.2 mph 6 mph 75% 0 in 0.3mm
17:38 78.8 °F 70.3 °F 29.8 in North 0.7 mph 5.4 mph 75% 0 in 0.3mm
17:44 79.7 °F 70.7 °F 29.8 in WNW 1.6 mph 5.4 mph 74% 0 in 0.3mm
17:50 80.4 °F 70.5 °F 29.8 in NNW 0.7 mph 5.4 mph 72% 0 in 0.3mm
17:56 79 °F 69.6 °F 29.8 in NE 1.6 mph 5.4 mph 73% 0 in 0.3mm
18:02 77.9 °F 69.4 °F 29.8 in NE 1.6 mph 3.8 mph 75% 0 in 0.3mm
18:08 76.8 °F 70.2 °F 29.8 in Calm   4.5 mph 80% 0 in 0.3mm
18:14 76.3 °F 70.2 °F 29.8 in Calm   3.8 mph 81% 0 in 0.3mm
18:20 75.9 °F 70.2 °F 29.8 in NW 1.6 mph 3.8 mph 82% 0 in 0.3mm
18:26 75.6 °F 69.6 °F 29.8 in WNW 3.8 mph 5.4 mph 82% 0 in 0.3mm
18:32 75.2 °F 69.6 °F 29.8 in WSW 1.6 mph 6 mph 83% 0 in 0.3mm
18:38 75.2 °F 69.6 °F 29.8 in WNW 1.6 mph 4.5 mph 83% 0 in 0.3mm
18:44 75.2 °F 70.2 °F 29.8 in West 1.6 mph 3.8 mph 84% 0 in 0.3mm
18:50 75 °F 70 °F 29.8 in WNW 1.6 mph 3.8 mph 84% 0 in 0.3mm
18:56 74.8 °F 69.6 °F 29.8 in WNW 1.6 mph 4.5 mph 84% 0 in 0.3mm
19:02 74.8 °F 69.6 °F 29.8 in NW 1.6 mph 3.8 mph 84% 0 in 0.3mm
19:08 74.7 °F 70 °F 29.8 in NNW 0.7 mph 3.8 mph 85% 0 in 0.3mm
19:14 74.5 °F 69.6 °F 29.8 in Calm   3.8 mph 85% 0 in 0.3mm
19:20 74.5 °F 69.6 °F 29.8 in North 0.7 mph 3.8 mph 85% 0 in 0.3mm
19:26 74.3 °F 69.4 °F 29.9 in North 0.7 mph 3.8 mph 85% 0 in 0.3mm
19:32 74.1 °F 69.4 °F 29.9 in NNW 0.7 mph 3.1 mph 85% 0 in 0.3mm
19:38 74.1 °F 69.6 °F 29.9 in Calm   3.8 mph 86% 0 in 0.3mm
19:44 73.9 °F 69.4 °F 29.9 in NNW 1.6 mph 3.8 mph 86% 0 in 0.3mm
19:50 73.9 °F 70 °F 29.9 in WNW 0.7 mph 3.8 mph 87% 0 in 0.3mm
19:56 73.9 °F 70 °F 29.9 in WNW 1.6 mph 3.1 mph 87% 0 in 0.3mm
20:02 73.8 °F 69.6 °F 29.9 in West 1.6 mph 3.1 mph 87% 0 in 0.3mm
20:08 73.8 °F 69.6 °F 29.9 in NNW 0.7 mph 3.1 mph 87% 0 in 0.3mm
20:14 73.4 °F 69.6 °F 29.9 in North 0.7 mph 3.1 mph 88% 0 in 0.3mm
20:20 73.2 °F 69.4 °F 29.9 in Calm   3.1 mph 88% 0 in 0.3mm
20:26 73 °F 69.3 °F 29.9 in Calm   2.2 mph 88% 0 in 0.3mm
20:32 72.9 °F 69.4 °F 29.9 in North 0.7 mph 2.2 mph 89% 0 in 0.3mm
20:38 72.9 °F 69.4 °F 29.9 in North 0.7 mph 2.2 mph 89% 0 in 0.3mm
20:44 72.7 °F 69.3 °F 29.9 in NNW 0.7 mph 3.1 mph 89% 0 in 0.3mm
20:50 72.9 °F 69.4 °F 29.9 in NNW 0.7 mph 2.2 mph 89% 0 in 0.3mm
20:56 72.7 °F 69.3 °F 29.9 in NNW 0.7 mph 2.2 mph 89% 0 in 0.3mm
21:02 72.7 °F 69.3 °F 29.9 in North 0.7 mph 3.1 mph 89% 0 in 0.3mm
21:08 72.7 °F 69.6 °F 29.9 in North 0.7 mph 3.1 mph 90% 0 in 0.3mm
21:14 72.9 °F 69.8 °F 29.9 in North 0.7 mph 3.1 mph 90% 0 in 0.3mm
21:20 72.9 °F 69.8 °F 29.9 in North 0.7 mph 3.1 mph 90% 0 in 0.3mm
21:26 72.7 °F 69.6 °F 29.9 in North 0.7 mph 3.8 mph 90% 0 in 0.3mm
21:32 72.7 °F 69.6 °F 29.9 in North 0.7 mph 3.8 mph 90% 0 in 0.3mm
21:38 72.7 °F 69.6 °F 29.9 in North 0.7 mph 3.1 mph 90% 0 in 0.3mm
21:44 72.5 °F 69.4 °F 29.9 in NW 0.7 mph 3.8 mph 90% 0 in 0.3mm
21:50 72.7 °F 69.6 °F 29.9 in WNW 0.7 mph 3.8 mph 90% 0 in 0.3mm
21:56 72.7 °F 69.6 °F 29.9 in North 1.6 mph 3.1 mph 90% 0 in 0.3mm
22:02 72.7 °F 69.6 °F 29.9 in NNW 0.7 mph 3.1 mph 90% 0 in 0.3mm
22:10 72.7 °F 70 °F 29.9 in North 0.7 mph 3.1 mph 91% 0 in 0.3mm
22:16 72.7 °F 70 °F 29.9 in NW 1.6 mph 3.1 mph 91% 0 in 0.3mm
22:22 72.7 °F 69.6 °F 29.9 in WNW 0.7 mph 3.1 mph 90% 0 in 0.3mm
22:28 72.7 °F 69.6 °F 29.9 in WNW 1.6 mph 3.1 mph 90% 0 in 0.3mm
22:34 72.7 °F 69.6 °F 29.9 in NNW 1.6 mph 3.1 mph 90% 0 in 0.3mm
22:40 72.5 °F 69.4 °F 29.9 in North 0.7 mph 3.1 mph 90% 0 in 0.3mm
22:46 72.5 °F 69.4 °F 29.9 in NW 0.7 mph 4.5 mph 90% 0 in 0.3mm
22:52 72.5 °F 69.1 °F 29.9 in WNW 2.2 mph 4.5 mph 89% 0 in 0.3mm
22:58 72.5 °F 69.1 °F 29.9 in WNW 2.2 mph 4.5 mph 89% 0 in 0.3mm
23:04 72.3 °F 68.9 °F 29.9 in WNW 2.2 mph 5.4 mph 89% 0 in 0.3mm
23:10 72.1 °F 68.7 °F 29.9 in WNW 3.1 mph 5.4 mph 89% 0 in 0.3mm
23:16 71.8 °F 68.4 °F 29.9 in West 4.5 mph 6 mph 89% 0 in 0.3mm
23:22 71.2 °F 68.2 °F 29.9 in WSW 1.6 mph 6 mph 90% 0 in 0.3mm
23:28 71.1 °F 68 °F 29.9 in West 1.6 mph 5.4 mph 90% 0 in 0.3mm
23:34 70.7 °F 68 °F 29.9 in WNW 0.7 mph 3.8 mph 91% 0 in 0.3mm
23:40 70.3 °F 67.6 °F 29.9 in Calm   2.2 mph 91% 0 in 0.3mm
23:46 70.2 °F 67.5 °F 29.9 in West 0.7 mph 2.2 mph 91% 0 in 0.3mm
23:52 70.2 °F 67.8 °F 29.9 in Calm   2.2 mph 92% 0 in 0.3mm
23:58 70.2 °F 67.8 °F 29.9 in WNW 1.6 mph 2.2 mph 92% 0 in 0.3mm
Opotiki Town Weather
Compliments of Weather Underground - memory used : 2 mb

NZ Local Weather Forum      Cumulus Top Weather Sites      New Zealand Top40 Weather Station Sites      Flag Counter